createdAt,value
2023-02-13T00:00:03.427Z,8.83
2023-02-13T00:10:25.322Z,8.83
2023-02-13T00:20:57.045Z,8.82
2023-02-13T00:31:20.415Z,8.76
2023-02-13T00:41:41.858Z,8.72
2023-02-13T00:52:03.272Z,8.76
2023-02-13T01:02:24.957Z,8.77
2023-02-13T01:12:46.548Z,8.73
2023-02-13T01:23:07.979Z,8.75
2023-02-13T01:33:29.740Z,8.73
2023-02-13T01:43:53.676Z,8.65
2023-02-13T01:54:23.165Z,8.60
2023-02-13T02:04:45.565Z,8.59
2023-02-13T02:15:07.461Z,8.61
2023-02-13T02:25:37.944Z,8.60
2023-02-13T02:35:59.294Z,8.65
2023-02-13T02:47:13.055Z,8.65
2023-02-13T02:57:56.922Z,8.57
2023-02-13T03:08:38.788Z,8.52
2023-02-13T03:19:18.920Z,8.56
2023-02-13T03:30:05.656Z,8.62
2023-02-13T03:41:00.685Z,8.62
2023-02-13T03:51:24.765Z,8.63
2023-02-13T04:01:49.355Z,8.62
2023-02-13T04:12:10.763Z,8.62
2023-02-13T04:22:32.130Z,8.64
2023-02-13T04:32:53.521Z,8.62
2023-02-13T04:43:14.869Z,8.65
2023-02-13T04:53:36.216Z,8.65
2023-02-13T05:03:57.573Z,8.66
2023-02-13T05:14:19.078Z,8.66
2023-02-13T05:24:40.432Z,8.64
2023-02-13T05:35:04.333Z,8.63
2023-02-13T05:45:25.950Z,8.57
2023-02-13T05:55:47.305Z,8.56
2023-02-13T06:06:09.233Z,8.63
2023-02-13T06:16:31.169Z,8.63
2023-02-13T06:26:52.605Z,8.58
2023-02-13T06:37:13.973Z,8.59
2023-02-13T06:47:35.743Z,8.60
2023-02-13T06:57:57.086Z,8.65
2023-02-13T07:08:19.135Z,8.67
2023-02-13T07:18:40.550Z,8.64
2023-02-13T07:29:11.584Z,8.64
2023-02-13T07:39:33.571Z,8.60
2023-02-13T07:49:55.004Z,8.60
2023-02-13T08:00:17.165Z,8.61
2023-02-13T08:10:58.799Z,8.68
2023-02-13T08:21:20.160Z,8.66
2023-02-13T08:31:41.708Z,8.68
2023-02-13T08:42:04.106Z,8.70
2023-02-13T08:52:25.615Z,8.70
2023-02-13T09:02:47.058Z,8.71
2023-02-13T09:13:08.636Z,8.64
2023-02-13T09:23:34.128Z,8.67
2023-02-13T09:33:55.569Z,8.70
2023-02-13T09:44:35.430Z,8.66
2023-02-13T09:54:56.827Z,8.67
2023-02-13T10:05:30.346Z,8.72
2023-02-13T10:15:57.783Z,8.70
2023-02-13T10:26:21.173Z,8.69
2023-02-13T10:36:46.981Z,8.70
2023-02-13T10:47:17.707Z,8.82
2023-02-13T10:57:58.071Z,8.87
2023-02-13T11:08:19.490Z,8.90
2023-02-13T11:18:44.118Z,8.99
2023-02-13T11:29:24.191Z,9.05
2023-02-13T11:39:46.644Z,9.13
2023-02-13T11:50:28.479Z,9.14
2023-02-13T12:00:49.857Z,9.21
2023-02-13T12:11:23.650Z,9.33
2023-02-13T12:21:45.003Z,9.32
2023-02-13T12:32:25.378Z,9.31
2023-02-13T12:43:05.688Z,9.25
2023-02-13T12:53:28.398Z,9.32
2023-02-13T13:03:50.846Z,9.23
2023-02-13T13:14:17.849Z,9.23
2023-02-13T13:24:39.218Z,9.20
2023-02-13T13:35:00.767Z,9.23
2023-02-13T13:45:28.282Z,9.25
2023-02-13T13:55:49.620Z,9.22
2023-02-13T14:06:12.802Z,9.25
2023-02-13T14:16:42.078Z,9.34
2023-02-13T14:27:06.185Z,9.28
2023-02-13T14:37:31.032Z,9.31
2023-02-13T14:47:53.975Z,9.33
2023-02-13T14:58:18.818Z,9.38
2023-02-13T15:08:47.957Z,9.42
2023-02-13T15:19:14.717Z,9.41
2023-02-13T15:29:49.311Z,9.41
2023-02-13T15:40:28.085Z,9.43
2023-02-13T15:50:49.467Z,9.38
2023-02-13T16:01:11.118Z,9.33
2023-02-13T16:11:39.396Z,9.29
2023-02-13T16:22:07.573Z,9.28
2023-02-13T16:32:34.240Z,9.25
2023-02-13T16:43:15.581Z,9.22
2023-02-13T16:53:37.793Z,9.19
2023-02-13T17:03:59.312Z,9.10
2023-02-13T17:14:20.867Z,9.08
2023-02-13T17:24:42.233Z,9.02
2023-02-13T17:35:03.754Z,8.97
2023-02-13T17:45:26.926Z,8.96
2023-02-13T17:55:48.297Z,9.01
2023-02-13T18:06:13.941Z,9.02
2023-02-13T18:16:38.105Z,8.98
2023-02-13T18:26:59.455Z,8.98
2023-02-13T18:37:21.348Z,8.97
2023-02-13T18:47:42.829Z,8.87
2023-02-13T18:58:04.221Z,8.69
2023-02-13T19:08:25.591Z,8.47
2023-02-13T19:18:48.175Z,8.26
2023-02-13T19:29:09.659Z,8.01
2023-02-13T19:39:31.040Z,7.87
2023-02-13T19:49:53.443Z,7.73
2023-02-13T20:00:15.298Z,7.60
2023-02-13T20:10:36.837Z,7.47
2023-02-13T20:20:58.550Z,7.41
2023-02-13T20:31:21.483Z,7.30
2023-02-13T20:41:48.408Z,7.24
2023-02-13T20:52:09.875Z,7.16
2023-02-13T21:02:31.343Z,7.09
2023-02-13T21:12:52.843Z,6.95
2023-02-13T21:23:14.216Z,6.86
2023-02-13T21:33:36.438Z,6.71
2023-02-13T21:43:57.788Z,6.57
2023-02-13T21:54:19.166Z,6.46
2023-02-13T22:04:41.901Z,6.37
2023-02-13T22:15:04.253Z,6.27
2023-02-13T22:25:25.671Z,6.13
2023-02-13T22:35:47.312Z,6.05
2023-02-13T22:46:13.228Z,6.00
2023-02-13T22:56:34.684Z,5.95
2023-02-13T23:06:56.145Z,5.98
2023-02-13T23:17:36.152Z,5.95
2023-02-13T23:27:58.113Z,5.89
2023-02-13T23:38:19.672Z,5.81
2023-02-13T23:48:41.031Z,5.77
2023-02-13T23:59:02.424Z,5.72
